createdAt,value
2023-02-18T00:00:48.263Z,9.00
2023-02-18T00:03:50.950Z,8.85
2023-02-18T00:06:52.837Z,8.75
2023-02-18T00:09:54.888Z,8.76
2023-02-18T00:12:56.680Z,8.77
2023-02-18T00:16:10.694Z,8.77
2023-02-18T00:19:15.981Z,8.77
2023-02-18T00:22:17.918Z,8.61
2023-02-18T00:25:19.861Z,8.67
2023-02-18T00:28:21.747Z,8.70
2023-02-18T00:31:26.778Z,8.67
2023-02-18T00:34:28.892Z,8.66
2023-02-18T00:37:30.878Z,8.69
2023-02-18T00:40:32.930Z,8.66
2023-02-18T00:43:34.779Z,8.64
2023-02-18T00:46:38.115Z,8.67
2023-02-18T00:49:41.544Z,8.80
2023-02-18T00:52:43.477Z,8.83
2023-02-18T00:55:49.851Z,8.87
2023-02-18T00:58:53.046Z,8.88
2023-02-18T01:01:55.035Z,8.88
2023-02-18T01:04:57.136Z,8.84
2023-02-18T01:07:59.188Z,8.84
2023-02-18T01:11:01.327Z,8.87
2023-02-18T01:14:03.533Z,8.91
2023-02-18T01:17:05.486Z,8.98
2023-02-18T01:20:08.665Z,8.97
2023-02-18T01:23:12.092Z,8.98
2023-02-18T01:26:13.948Z,9.00
2023-02-18T01:29:15.870Z,9.06
2023-02-18T01:32:18.036Z,9.14
2023-02-18T01:35:20.582Z,9.22
2023-02-18T01:38:22.590Z,9.15
2023-02-18T01:41:24.807Z,9.13
2023-02-18T01:44:28.735Z,9.23
2023-02-18T01:47:30.678Z,9.08
2023-02-18T01:50:36.202Z,9.10
2023-02-18T01:53:56.296Z,9.17
2023-02-18T01:57:04.885Z,9.25
2023-02-18T02:00:14.250Z,9.12
2023-02-18T02:03:21.710Z,9.12
2023-02-18T02:06:25.666Z,9.16
2023-02-18T02:09:37.219Z,8.74
2023-02-18T02:13:17.962Z,8.94
2023-02-18T02:16:34.411Z,8.99
2023-02-18T02:19:50.947Z,9.12
2023-02-18T02:23:32.691Z,9.00
2023-02-18T02:26:59.542Z,8.90
2023-02-18T02:30:10.544Z,8.76
2023-02-18T02:33:32.238Z,8.29
2023-02-18T02:36:48.045Z,8.33
2023-02-18T02:40:25.610Z,8.33
2023-02-18T02:43:51.302Z,8.34
2023-02-18T02:47:00.685Z,8.34
2023-02-18T02:50:37.295Z,8.41
2023-02-18T02:53:41.902Z,8.35
2023-02-18T02:56:43.908Z,8.37
2023-02-18T02:59:51.341Z,8.40
2023-02-18T03:03:22.668Z,8.62
2023-02-18T03:06:27.918Z,8.72
2023-02-18T03:09:45.266Z,8.69
2023-02-18T03:12:47.084Z,8.66
2023-02-18T03:15:55.129Z,8.63
2023-02-18T03:19:35.214Z,8.78
2023-02-18T03:22:42.374Z,8.89
2023-02-18T03:25:44.354Z,8.87
2023-02-18T03:28:51.016Z,8.96
2023-02-18T03:32:57.598Z,9.05
2023-02-18T03:42:38.504Z,9.13
2023-02-18T03:58:49.573Z,9.33
2023-02-18T04:08:29.838Z,9.69
2023-02-18T04:16:41.139Z,9.71
2023-02-18T04:19:43.135Z,9.82
2023-02-18T04:22:45.233Z,9.99
2023-02-18T04:25:47.125Z,9.97
2023-02-18T04:28:48.971Z,10.04
2023-02-18T04:31:50.920Z,10.31
2023-02-18T04:34:53.086Z,10.47
2023-02-18T04:37:54.955Z,10.42
2023-02-18T04:40:56.782Z,10.49
2023-02-18T04:43:59.692Z,10.51
2023-02-18T04:47:02.431Z,10.61
2023-02-18T04:50:04.791Z,10.65
2023-02-18T04:53:07.633Z,10.73
2023-02-18T04:56:09.913Z,10.74
2023-02-18T04:59:12.222Z,10.79
2023-02-18T05:02:14.058Z,10.71
2023-02-18T05:05:16.456Z,10.62
2023-02-18T05:08:19.122Z,10.65
2023-02-18T05:11:21.146Z,10.62
2023-02-18T05:14:23.022Z,10.62
2023-02-18T05:17:24.898Z,10.55
2023-02-18T05:20:27.281Z,10.60
2023-02-18T05:23:29.203Z,10.60
2023-02-18T05:26:31.073Z,10.57
2023-02-18T05:29:33.067Z,10.55
2023-02-18T05:32:35.113Z,10.48
2023-02-18T05:35:37.093Z,10.39
2023-02-18T05:38:39.162Z,10.35
2023-02-18T05:41:41.102Z,10.20
2023-02-18T05:44:43.011Z,10.14
2023-02-18T05:47:44.890Z,10.05
2023-02-18T05:50:46.838Z,9.92
2023-02-18T05:53:48.758Z,9.80
2023-02-18T05:56:51.643Z,9.77
2023-02-18T05:59:53.626Z,9.78
2023-02-18T06:02:55.502Z,9.87
2023-02-18T06:05:57.635Z,9.85
2023-02-18T06:09:00.302Z,9.88
2023-02-18T06:12:02.263Z,10.04
2023-02-18T06:15:05.025Z,10.07
2023-02-18T06:18:07.218Z,10.04
2023-02-18T06:21:09.169Z,9.98
2023-02-18T06:24:11.167Z,9.98
2023-02-18T06:27:13.071Z,10.01
2023-02-18T06:30:17.230Z,10.01
2023-02-18T06:33:19.226Z,10.15
2023-02-18T06:36:21.112Z,10.22
2023-02-18T06:39:23.217Z,10.20
2023-02-18T06:42:25.292Z,10.24
2023-02-18T06:45:27.185Z,10.28
2023-02-18T06:48:29.402Z,10.30
2023-02-18T06:51:31.217Z,10.28
2023-02-18T06:54:34.377Z,10.34
2023-02-18T06:57:36.763Z,10.36
2023-02-18T07:00:38.909Z,10.42
2023-02-18T07:03:41.104Z,10.48
2023-02-18T07:06:43.768Z,10.60
2023-02-18T07:09:45.590Z,10.61
2023-02-18T07:12:47.806Z,10.77
2023-02-18T07:15:49.754Z,10.77
2023-02-18T07:18:51.693Z,10.76
2023-02-18T07:21:57.576Z,10.82
2023-02-18T07:24:59.791Z,10.89
2023-02-18T07:28:01.725Z,10.97
2023-02-18T07:31:04.629Z,11.03
2023-02-18T07:34:06.670Z,11.10
2023-02-18T07:37:12.525Z,11.08
2023-02-18T07:40:16.671Z,11.06
2023-02-18T07:43:20.111Z,11.16
2023-02-18T07:46:22.299Z,11.27
2023-02-18T07:49:24.321Z,11.32
2023-02-18T07:52:26.230Z,11.53
2023-02-18T07:55:48.002Z,11.57
2023-02-18T07:58:49.858Z,11.75
2023-02-18T08:01:51.845Z,11.83
2023-02-18T08:04:53.810Z,12.02
2023-02-18T08:07:55.974Z,12.10
2023-02-18T08:11:13.392Z,12.24
2023-02-18T08:14:20.202Z,12.32
2023-02-18T08:17:22.096Z,12.38
2023-02-18T08:20:24.220Z,12.27
2023-02-18T08:23:26.482Z,12.04
2023-02-18T08:26:28.808Z,11.92
2023-02-18T08:29:30.932Z,12.13
2023-02-18T08:32:33.238Z,12.26
2023-02-18T08:35:35.197Z,12.42
2023-02-18T08:38:37.499Z,12.50
2023-02-18T08:41:39.460Z,12.57
2023-02-18T08:44:41.515Z,12.65
2023-02-18T08:48:16.115Z,12.83
2023-02-18T08:51:17.942Z,12.85
2023-02-18T08:54:20.271Z,12.82
2023-02-18T08:57:22.067Z,12.85
2023-02-18T09:00:24.370Z,12.87
2023-02-18T09:03:27.031Z,12.92
2023-02-18T09:06:28.947Z,12.80
2023-02-18T09:09:30.889Z,12.74
2023-02-18T09:12:33.258Z,12.65
2023-02-18T09:16:20.713Z,12.69
2023-02-18T09:20:22.518Z,12.80
2023-02-18T09:24:04.520Z,12.95
2023-02-18T09:27:06.702Z,12.95
2023-02-18T09:30:09.125Z,13.32
2023-02-18T09:33:11.261Z,13.37
2023-02-18T09:36:14.318Z,13.37
2023-02-18T09:39:18.117Z,13.60
2023-02-18T09:42:28.465Z,13.63
2023-02-18T09:45:30.523Z,13.70
2023-02-18T09:48:36.189Z,13.56
2023-02-18T09:51:38.343Z,13.45
2023-02-18T09:54:41.181Z,13.28
2023-02-18T09:57:54.819Z,13.26
2023-02-18T10:01:20.016Z,13.27
2023-02-18T10:04:24.956Z,13.07
2023-02-18T10:07:38.759Z,12.98
2023-02-18T10:10:44.499Z,12.92
2023-02-18T10:13:46.459Z,12.90
2023-02-18T10:16:51.058Z,12.86
2023-02-18T10:19:56.082Z,13.00
2023-02-18T10:23:01.190Z,13.05
2023-02-18T10:26:07.704Z,13.08
2023-02-18T10:29:21.263Z,13.07
2023-02-18T10:32:27.678Z,13.05
2023-02-18T10:35:29.442Z,13.10
2023-02-18T10:38:41.839Z,13.11
2023-02-18T10:42:03.900Z,13.10
2023-02-18T10:45:30.187Z,13.11
2023-02-18T10:48:52.686Z,13.18
2023-02-18T10:51:57.925Z,13.19
2023-02-18T10:55:04.546Z,13.19
2023-02-18T10:58:30.496Z,13.29
2023-02-18T11:01:32.471Z,13.28
2023-02-18T11:04:42.885Z,13.24
2023-02-18T11:07:49.134Z,13.28
2023-02-18T11:10:52.518Z,13.25
2023-02-18T11:13:57.168Z,13.21
2023-02-18T11:17:09.802Z,13.22
2023-02-18T11:20:31.363Z,13.21
2023-02-18T11:23:46.603Z,13.29
2023-02-18T11:26:48.668Z,13.47
2023-02-18T11:29:55.121Z,13.47
2023-02-18T11:33:03.237Z,13.58
2023-02-18T11:36:22.198Z,13.54
2023-02-18T11:39:27.821Z,13.42
2023-02-18T11:42:30.012Z,13.55
2023-02-18T11:45:34.741Z,13.69
2023-02-18T11:48:36.852Z,13.68
2023-02-18T11:51:40.292Z,13.49
2023-02-18T11:54:42.236Z,13.45
2023-02-18T11:58:05.372Z,13.50
2023-02-18T12:01:15.599Z,13.51
2023-02-18T12:04:21.520Z,13.42
2023-02-18T12:07:34.819Z,13.27
2023-02-18T12:10:40.751Z,13.30
2023-02-18T12:13:52.420Z,13.35
2023-02-18T12:17:03.450Z,13.42
2023-02-18T12:20:42.779Z,13.52
2023-02-18T12:24:12.044Z,13.46
2023-02-18T12:27:25.097Z,13.69
2023-02-18T12:31:14.584Z,13.86
2023-02-18T12:34:36.691Z,14.04
2023-02-18T12:38:02.192Z,14.17
2023-02-18T12:41:22.574Z,14.28
2023-02-18T12:44:24.829Z,14.31
2023-02-18T12:47:54.778Z,14.23
2023-02-18T12:51:02.221Z,14.31
2023-02-18T12:54:27.015Z,14.27
2023-02-18T12:57:36.685Z,14.15
2023-02-18T13:00:53.410Z,14.13
2023-02-18T13:04:14.947Z,14.06
2023-02-18T13:07:26.386Z,13.97
2023-02-18T13:10:32.374Z,13.91
2023-02-18T13:13:41.115Z,13.84
2023-02-18T13:16:47.096Z,13.85
2023-02-18T13:20:21.722Z,13.86
2023-02-18T13:23:31.338Z,13.83
2023-02-18T13:26:34.938Z,13.99
2023-02-18T13:30:17.298Z,14.03
2023-02-18T13:33:41.381Z,13.90
2023-02-18T13:37:10.498Z,13.94
2023-02-18T13:40:25.274Z,13.85
2023-02-18T13:43:27.264Z,13.79
2023-02-18T13:46:29.371Z,13.69
2023-02-18T13:49:38.383Z,13.62
2023-02-18T13:52:40.840Z,13.60
2023-02-18T13:55:51.639Z,13.62
2023-02-18T13:59:20.075Z,13.57
2023-02-18T14:02:27.734Z,13.72
2023-02-18T14:05:41.573Z,13.67
2023-02-18T14:08:44.138Z,13.59
2023-02-18T14:11:53.642Z,13.49
2023-02-18T14:14:55.613Z,13.58
2023-02-18T14:18:12.724Z,13.55
2023-02-18T14:21:14.637Z,13.60
2023-02-18T14:24:59.572Z,13.57
2023-02-18T14:28:04.874Z,13.50
2023-02-18T14:31:34.247Z,13.54
2023-02-18T14:34:54.183Z,13.56
2023-02-18T14:38:14.454Z,13.52
2023-02-18T14:41:44.475Z,13.40
2023-02-18T14:44:57.707Z,13.45
2023-02-18T14:48:41.168Z,13.42
2023-02-18T14:51:48.146Z,13.40
2023-02-18T14:54:50.852Z,13.37
2023-02-18T14:57:59.914Z,13.33
2023-02-18T15:01:31.940Z,13.33
2023-02-18T15:04:33.936Z,13.18
2023-02-18T15:07:35.861Z,13.31
2023-02-18T15:11:04.138Z,13.21
2023-02-18T15:14:16.597Z,13.13
2023-02-18T15:17:22.574Z,13.03
2023-02-18T15:20:35.209Z,12.93
2023-02-18T15:23:39.863Z,12.80
2023-02-18T15:26:45.847Z,12.83
2023-02-18T15:30:30.967Z,12.84
2023-02-18T15:33:32.971Z,12.81
2023-02-18T15:36:34.850Z,12.80
2023-02-18T15:39:39.698Z,12.83
2023-02-18T15:42:42.210Z,12.74
2023-02-18T15:45:46.838Z,12.74
2023-02-18T15:48:51.403Z,12.65
2023-02-18T15:52:00.332Z,12.67
2023-02-18T15:55:15.224Z,12.61
2023-02-18T15:58:22.636Z,12.56
2023-02-18T16:01:29.690Z,12.56
2023-02-18T16:04:34.066Z,12.49
2023-02-18T16:08:19.027Z,12.43
2023-02-18T16:12:20.682Z,12.42
2023-02-18T16:15:45.606Z,12.36
2023-02-18T16:18:47.555Z,12.33
2023-02-18T16:21:49.418Z,12.33
2023-02-18T16:24:56.860Z,12.03
2023-02-18T16:27:58.964Z,11.97
2023-02-18T16:31:01.096Z,11.91
2023-02-18T16:34:03.611Z,11.84
2023-02-18T16:37:24.373Z,11.44
2023-02-18T16:40:33.138Z,11.49
2023-02-18T16:43:35.402Z,11.49
2023-02-18T16:46:37.290Z,11.35
2023-02-18T16:49:42.014Z,11.49
2023-02-18T16:52:44.016Z,11.42
2023-02-18T16:55:46.366Z,11.47
2023-02-18T16:58:52.197Z,11.39
2023-02-18T17:01:56.034Z,11.43
2023-02-18T17:04:59.250Z,11.60
2023-02-18T17:08:23.429Z,11.63
2023-02-18T17:11:29.915Z,11.73
2023-02-18T17:14:32.165Z,11.89
2023-02-18T17:17:34.099Z,12.07
2023-02-18T17:20:36.223Z,12.30
2023-02-18T17:23:38.152Z,12.31
2023-02-18T17:26:40.881Z,12.22
2023-02-18T17:29:43.086Z,12.27
2023-02-18T17:32:48.978Z,12.35
2023-02-18T17:35:51.257Z,12.41
2023-02-18T17:38:53.696Z,12.42
2023-02-18T17:41:55.802Z,12.38
2023-02-18T17:44:57.897Z,12.43
2023-02-18T17:48:01.855Z,12.35
2023-02-18T17:51:06.199Z,12.14
2023-02-18T17:54:18.525Z,12.24
2023-02-18T17:57:20.603Z,12.31
2023-02-18T18:01:02.799Z,12.21
2023-02-18T18:04:11.822Z,12.06
2023-02-18T18:07:14.025Z,12.15
2023-02-18T18:10:17.199Z,12.23
2023-02-18T18:13:22.866Z,12.20
2023-02-18T18:16:25.538Z,12.23
2023-02-18T18:19:27.768Z,12.40
2023-02-18T18:22:29.863Z,12.49
2023-02-18T18:25:39.101Z,12.47
2023-02-18T18:28:41.579Z,12.57
2023-02-18T18:31:43.692Z,12.52
2023-02-18T18:34:48.987Z,12.19
2023-02-18T18:37:51.703Z,12.04
2023-02-18T18:40:54.747Z,11.84
2023-02-18T18:43:56.578Z,11.80
2023-02-18T18:46:58.760Z,11.68
2023-02-18T18:50:00.811Z,11.71
2023-02-18T18:53:03.120Z,11.54
2023-02-18T18:56:07.079Z,11.56
2023-02-18T18:59:10.160Z,11.59
2023-02-18T19:02:16.399Z,11.30
2023-02-18T19:05:22.445Z,11.35
2023-02-18T19:08:25.479Z,11.54
2023-02-18T19:11:27.715Z,11.60
2023-02-18T19:14:29.754Z,11.45
2023-02-18T19:17:31.762Z,11.48
2023-02-18T19:20:36.080Z,11.14
2023-02-18T19:23:39.064Z,11.11
2023-02-18T19:26:41.710Z,11.23
2023-02-18T19:29:43.674Z,11.23
2023-02-18T19:32:46.382Z,11.19
2023-02-18T19:35:48.515Z,11.18
2023-02-18T19:38:51.560Z,11.07
2023-02-18T19:41:54.170Z,11.01
2023-02-18T19:44:56.308Z,11.23
2023-02-18T19:47:59.873Z,11.32
2023-02-18T19:51:03.409Z,11.11
2023-02-18T19:54:05.469Z,10.89
2023-02-18T19:57:07.603Z,11.04
2023-02-18T20:00:13.531Z,10.99
2023-02-18T20:03:15.951Z,10.77
2023-02-18T20:06:20.186Z,10.70
2023-02-18T20:09:22.877Z,10.39
2023-02-18T20:12:24.855Z,10.55
2023-02-18T20:15:26.980Z,10.57
2023-02-18T20:18:29.127Z,10.63
2023-02-18T20:21:31.307Z,10.47
2023-02-18T20:24:33.976Z,10.32
2023-02-18T20:27:38.431Z,10.30
2023-02-18T20:30:42.836Z,10.24
2023-02-18T20:33:45.336Z,10.21
2023-02-18T20:36:50.058Z,10.19
2023-02-18T20:39:52.734Z,10.01
2023-02-18T20:42:54.980Z,10.05
2023-02-18T20:46:12.200Z,10.08
2023-02-18T20:49:18.666Z,10.16
2023-02-18T20:52:22.087Z,10.43
2023-02-18T20:55:24.304Z,10.48
2023-02-18T20:58:27.044Z,10.38
2023-02-18T21:01:29.679Z,10.34
2023-02-18T21:04:32.315Z,10.62
2023-02-18T21:07:34.285Z,10.91
2023-02-18T21:10:40.088Z,11.39
2023-02-18T21:13:42.892Z,11.69
2023-02-18T21:16:45.279Z,11.84
2023-02-18T21:19:47.429Z,11.82
2023-02-18T21:22:50.024Z,11.91
2023-02-18T21:25:52.378Z,12.07
2023-02-18T21:28:58.504Z,11.92
2023-02-18T21:32:01.097Z,11.91
2023-02-18T21:35:04.212Z,11.84
2023-02-18T21:38:07.743Z,11.63
2023-02-18T21:41:12.583Z,11.59
2023-02-18T21:44:14.705Z,11.61
2023-02-18T21:47:16.585Z,11.53
2023-02-18T21:50:18.592Z,11.51
2023-02-18T21:53:20.644Z,11.47
2023-02-18T21:56:22.494Z,11.29
2023-02-18T21:59:26.952Z,11.24
2023-02-18T22:02:32.397Z,11.18
2023-02-18T22:05:34.359Z,11.13
2023-02-18T22:08:36.300Z,10.98
2023-02-18T22:11:41.578Z,10.89
2023-02-18T22:14:44.185Z,10.83
2023-02-18T22:17:45.991Z,10.65
2023-02-18T22:20:48.004Z,10.76
2023-02-18T22:23:49.884Z,10.75
2023-02-18T22:26:51.857Z,10.68
2023-02-18T22:29:54.343Z,10.65
2023-02-18T22:32:56.485Z,10.54
2023-02-18T22:36:05.030Z,10.54
2023-02-18T22:39:06.970Z,10.48
2023-02-18T22:42:09.064Z,10.44
2023-02-18T22:45:11.026Z,10.46
2023-02-18T22:48:12.953Z,10.47
2023-02-18T22:51:31.284Z,10.39
2023-02-18T22:54:33.319Z,10.31
2023-02-18T22:57:35.227Z,10.26
2023-02-18T23:00:37.213Z,10.34
2023-02-18T23:03:39.519Z,10.28
2023-02-18T23:06:44.302Z,10.11
2023-02-18T23:09:46.771Z,9.99
2023-02-18T23:12:48.736Z,9.97
2023-02-18T23:16:05.689Z,9.98
2023-02-18T23:19:07.553Z,9.92
2023-02-18T23:22:11.505Z,9.97
2023-02-18T23:25:14.329Z,9.93
2023-02-18T23:28:16.255Z,9.95
2023-02-18T23:31:24.214Z,9.94
2023-02-18T23:34:26.382Z,9.90
2023-02-18T23:37:46.913Z,9.90
2023-02-18T23:40:49.571Z,9.77
2023-02-18T23:43:51.909Z,9.68
2023-02-18T23:46:54.437Z,9.53
2023-02-18T23:49:56.386Z,9.45
2023-02-18T23:52:58.306Z,9.42
2023-02-18T23:56:19.440Z,9.47
2023-02-18T23:59:21.586Z,9.37
